createdAt,value
2023-03-04T00:00:19.194Z,0.70
2023-03-04T00:02:47.473Z,0.70
2023-03-04T00:05:18.274Z,0.70
2023-03-04T00:07:49.013Z,0.70
2023-03-04T00:10:17.365Z,0.70
2023-03-04T00:12:48.178Z,0.70
2023-03-04T00:15:16.377Z,0.80
2023-03-04T00:17:49.969Z,0.80
2023-03-04T00:20:20.174Z,0.80
2023-03-04T00:22:48.444Z,0.80
2023-03-04T00:25:17.190Z,0.80
2023-03-04T00:27:45.436Z,0.80
2023-03-04T00:30:14.176Z,0.80
2023-03-04T00:32:44.015Z,0.80
2023-03-04T00:35:12.338Z,0.80
2023-03-04T00:37:41.879Z,0.90
2023-03-04T00:40:12.521Z,0.90
2023-03-04T00:42:41.195Z,0.90
2023-03-04T00:45:11.119Z,0.80
2023-03-04T00:47:39.347Z,0.90
2023-03-04T00:50:11.071Z,0.90
2023-03-04T00:52:39.337Z,0.90
2023-03-04T00:55:11.212Z,0.90
2023-03-04T00:57:43.016Z,0.90
2023-03-04T01:00:12.507Z,0.90
2023-03-04T01:02:40.903Z,1.00
2023-03-04T01:05:10.287Z,1.00
2023-03-04T01:07:40.190Z,1.00
2023-03-04T01:10:15.204Z,1.00
2023-03-04T01:12:44.178Z,1.00
2023-03-04T01:15:15.168Z,1.00
2023-03-04T01:17:43.391Z,1.00
2023-03-04T01:20:17.587Z,1.00
2023-03-04T01:22:46.186Z,1.00
2023-03-04T01:25:17.806Z,1.00
2023-03-04T01:27:48.191Z,1.00
2023-03-04T01:30:17.407Z,1.00
2023-03-04T01:32:45.600Z,1.00
2023-03-04T01:35:14.179Z,1.00
2023-03-04T01:37:42.294Z,1.00
2023-03-04T01:40:11.632Z,1.00
2023-03-04T01:42:41.430Z,1.00
2023-03-04T01:45:16.189Z,1.00
2023-03-04T01:47:48.519Z,1.00
2023-03-04T01:50:24.238Z,1.00
2023-03-04T01:52:52.571Z,1.00
2023-03-04T01:55:24.015Z,1.00
2023-03-04T01:57:53.995Z,1.00
2023-03-04T02:00:32.126Z,0.90
2023-03-04T02:03:03.371Z,1.00
2023-03-04T02:05:32.502Z,1.00
2023-03-04T02:08:02.209Z,1.00
2023-03-04T02:10:30.688Z,1.00
2023-03-04T02:13:00.815Z,0.90
2023-03-04T02:15:30.228Z,1.00
2023-03-04T02:17:58.599Z,1.00
2023-03-04T02:20:43.808Z,1.00
2023-03-04T02:23:18.131Z,1.00
2023-03-04T02:25:52.205Z,1.00
2023-03-04T02:28:22.824Z,1.00
2023-03-04T02:30:52.291Z,1.00
2023-03-04T02:33:21.451Z,1.00
2023-03-04T02:35:50.271Z,1.00
2023-03-04T02:38:20.204Z,1.00
2023-03-04T02:40:52.217Z,1.00
2023-03-04T02:43:22.500Z,1.00
2023-03-04T02:45:51.783Z,1.10
2023-03-04T02:48:22.568Z,1.00
2023-03-04T02:50:52.720Z,1.00
2023-03-04T02:53:25.623Z,1.10
2023-03-04T02:55:54.633Z,1.10
2023-03-04T02:58:27.812Z,1.00
2023-03-04T03:00:56.033Z,1.00
2023-03-04T03:03:27.236Z,1.10
2023-03-04T03:05:57.218Z,1.10
2023-03-04T03:08:28.090Z,1.10
2023-03-04T03:10:58.395Z,1.10
2023-03-04T03:13:29.598Z,1.10
2023-03-04T03:15:58.246Z,1.20
2023-03-04T03:18:26.681Z,1.20
2023-03-04T03:20:54.923Z,1.20
2023-03-04T03:23:27.212Z,1.20
2023-03-04T03:25:55.327Z,1.20
2023-03-04T03:28:25.251Z,1.20
2023-03-04T03:30:56.093Z,1.30
2023-03-04T03:33:24.603Z,1.30
2023-03-04T03:35:54.615Z,1.30
2023-03-04T03:38:23.253Z,1.30
2023-03-04T03:40:51.359Z,1.30
2023-03-04T03:43:20.264Z,1.30
2023-03-04T03:45:48.544Z,1.40
2023-03-04T03:48:17.992Z,1.40
2023-03-04T03:50:46.952Z,1.40
2023-03-04T03:53:15.166Z,1.50
2023-03-04T03:55:45.084Z,1.50
2023-03-04T03:58:14.242Z,1.50
2023-03-04T04:00:43.234Z,1.50
2023-03-04T04:03:17.994Z,1.50
2023-03-04T04:05:47.219Z,1.50
2023-03-04T04:08:16.226Z,1.50
2023-03-04T04:10:45.094Z,1.50
2023-03-04T04:13:16.390Z,1.50
2023-03-04T04:15:44.527Z,1.60
2023-03-04T04:18:12.734Z,1.60
2023-03-04T04:20:42.348Z,1.60
2023-03-04T04:23:11.249Z,1.60
2023-03-04T04:25:44.141Z,1.50
2023-03-04T04:28:12.340Z,1.60
2023-03-04T04:30:41.033Z,1.60
2023-03-04T04:33:10.450Z,1.70
2023-03-04T04:35:39.314Z,1.60
2023-03-04T04:38:13.306Z,1.70
2023-03-04T04:40:43.001Z,1.70
2023-03-04T04:43:12.280Z,1.70
2023-03-04T04:45:40.589Z,1.70
2023-03-04T04:48:09.045Z,1.70
2023-03-04T04:50:37.321Z,1.80
2023-03-04T04:53:06.253Z,1.80
2023-03-04T04:55:36.618Z,1.80
2023-03-04T04:58:08.245Z,1.80
2023-03-04T05:00:36.412Z,1.80
2023-03-04T05:03:08.677Z,1.80
2023-03-04T05:05:36.848Z,1.80
2023-03-04T05:08:06.297Z,1.80
2023-03-04T05:10:36.469Z,1.80
2023-03-04T05:13:04.589Z,1.80
2023-03-04T05:15:36.367Z,1.80
2023-03-04T05:18:04.795Z,1.80
2023-03-04T05:20:32.911Z,1.80
2023-03-04T05:23:02.296Z,1.80
2023-03-04T05:25:30.651Z,1.90
2023-03-04T05:28:02.002Z,1.90
2023-03-04T05:30:31.202Z,1.90
2023-03-04T05:33:00.257Z,1.90
2023-03-04T05:35:29.242Z,1.90
2023-03-04T05:37:58.267Z,1.90
2023-03-04T05:40:26.406Z,1.90
2023-03-04T05:42:54.678Z,1.90
2023-03-04T05:45:24.794Z,1.90
2023-03-04T05:47:56.369Z,2.00
2023-03-04T05:50:25.297Z,2.00
2023-03-04T05:52:54.368Z,2.00
2023-03-04T05:55:22.622Z,2.00
2023-03-04T05:57:50.820Z,2.00
2023-03-04T06:00:23.577Z,2.00
2023-03-04T06:02:51.962Z,2.10
2023-03-04T06:05:20.770Z,2.00
2023-03-04T06:07:48.972Z,2.10
2023-03-04T06:10:19.489Z,2.00
2023-03-04T06:12:50.240Z,2.10
2023-03-04T06:15:19.294Z,2.00
2023-03-04T06:17:48.848Z,2.10
2023-03-04T06:20:16.999Z,2.10
2023-03-04T06:22:45.102Z,2.20
2023-03-04T06:25:13.227Z,2.20
2023-03-04T06:27:44.165Z,2.10
2023-03-04T06:30:13.321Z,2.20
2023-03-04T06:32:44.460Z,2.20
2023-03-04T06:35:14.330Z,2.20
2023-03-04T06:37:43.216Z,2.10
2023-03-04T06:40:14.274Z,2.20
2023-03-04T06:42:44.120Z,2.20
2023-03-04T06:45:13.276Z,2.20
2023-03-04T06:47:41.488Z,2.20
2023-03-04T06:50:12.304Z,2.20
2023-03-04T06:52:42.192Z,2.20
2023-03-04T06:55:13.326Z,2.20
2023-03-04T06:57:41.463Z,2.10
2023-03-04T07:00:11.436Z,2.10
2023-03-04T07:02:42.301Z,2.20
2023-03-04T07:05:11.474Z,2.20
2023-03-04T07:07:41.187Z,2.20
2023-03-04T07:10:11.180Z,2.20
2023-03-04T07:12:39.364Z,2.20
2023-03-04T07:15:08.627Z,2.20
2023-03-04T07:17:36.931Z,2.20
2023-03-04T07:20:05.782Z,2.20
2023-03-04T07:22:33.923Z,2.20
2023-03-04T07:25:03.565Z,2.20
2023-03-04T07:27:31.819Z,2.20
2023-03-04T07:29:59.989Z,2.20
2023-03-04T07:32:28.405Z,2.30
2023-03-04T07:34:57.308Z,2.30
2023-03-04T07:37:25.459Z,2.30
2023-03-04T07:39:54.245Z,2.30
2023-03-04T07:42:23.723Z,2.40
2023-03-04T07:45:01.884Z,2.40
2023-03-04T07:47:30.135Z,2.40
2023-03-04T07:49:58.428Z,2.40
2023-03-04T07:52:26.786Z,2.40
2023-03-04T07:54:54.949Z,2.40
2023-03-04T07:57:27.447Z,2.50
2023-03-04T07:59:56.299Z,2.50
2023-03-04T08:02:24.586Z,2.50
2023-03-04T08:04:52.893Z,2.40
2023-03-04T08:07:21.023Z,2.50
2023-03-04T08:09:50.164Z,2.40
2023-03-04T08:12:18.359Z,2.50
2023-03-04T08:14:47.892Z,2.60
2023-03-04T08:17:17.306Z,2.50
2023-03-04T08:19:46.305Z,2.50
2023-03-04T08:22:15.309Z,2.50
2023-03-04T08:24:43.439Z,2.50
2023-03-04T08:27:12.330Z,2.50
2023-03-04T08:29:40.544Z,2.50
2023-03-04T08:32:10.136Z,2.50
2023-03-04T08:34:41.857Z,2.50
2023-03-04T08:37:09.992Z,2.50
2023-03-04T08:39:38.328Z,2.50
2023-03-04T08:42:07.328Z,2.50
2023-03-04T08:44:38.517Z,2.50
2023-03-04T08:47:09.289Z,2.60
2023-03-04T08:49:38.755Z,2.60
2023-03-04T08:52:08.318Z,2.60
2023-03-04T08:54:36.551Z,2.60
2023-03-04T08:57:07.985Z,2.70
2023-03-04T08:59:38.270Z,2.70
2023-03-04T09:02:07.487Z,2.70
2023-03-04T09:04:35.819Z,2.70
2023-03-04T09:07:05.981Z,2.70
2023-03-04T09:09:34.201Z,2.70
2023-03-04T09:12:02.806Z,2.80
2023-03-04T09:14:31.063Z,2.80
2023-03-04T09:16:59.201Z,2.90
2023-03-04T09:19:28.330Z,2.90
2023-03-04T09:21:56.793Z,3.00
2023-03-04T09:24:28.960Z,3.00
2023-03-04T09:26:57.200Z,3.00
2023-03-04T09:29:26.287Z,3.00
2023-03-04T09:31:54.574Z,3.10
2023-03-04T09:34:22.723Z,3.10
2023-03-04T09:36:51.306Z,3.00
2023-03-04T09:39:20.210Z,3.10
2023-03-04T09:41:52.965Z,3.00
2023-03-04T09:44:25.097Z,3.10
2023-03-04T09:46:58.322Z,3.10
2023-03-04T09:49:27.296Z,3.10
2023-03-04T09:52:01.712Z,3.10
2023-03-04T09:55:00.291Z,3.00
2023-03-04T09:57:41.047Z,3.00
2023-03-04T10:00:20.553Z,2.90
2023-03-04T10:03:13.144Z,2.90
2023-03-04T10:05:48.332Z,3.00
2023-03-04T10:08:49.389Z,3.00
2023-03-04T10:11:22.345Z,3.00
2023-03-04T10:14:06.358Z,3.00
2023-03-04T10:16:41.100Z,3.00
2023-03-04T10:19:31.404Z,3.00
2023-03-04T10:22:01.384Z,3.00
2023-03-04T10:24:31.014Z,3.00
2023-03-04T10:27:09.134Z,3.00
2023-03-04T10:29:38.733Z,3.00
2023-03-04T10:32:08.409Z,3.00
2023-03-04T10:34:37.340Z,3.00
2023-03-04T10:37:08.743Z,3.00
2023-03-04T10:39:39.647Z,3.10
2023-03-04T10:42:30.004Z,3.00
2023-03-04T10:45:03.116Z,3.00
2023-03-04T10:47:34.105Z,3.00
2023-03-04T10:50:04.167Z,2.90
2023-03-04T10:52:35.873Z,2.90
2023-03-04T10:55:11.605Z,2.90
2023-03-04T10:57:42.175Z,2.90
2023-03-04T11:00:32.005Z,2.90
2023-03-04T11:03:28.699Z,2.90
2023-03-04T11:06:07.437Z,2.80
2023-03-04T11:08:36.203Z,2.80
2023-03-04T11:11:04.371Z,2.80
2023-03-04T11:13:33.224Z,2.80
2023-03-04T11:16:05.836Z,2.80
2023-03-04T11:18:42.036Z,2.80
2023-03-04T11:21:18.078Z,2.80
2023-03-04T11:23:51.562Z,2.80
2023-03-04T11:26:24.527Z,2.80
2023-03-04T11:28:57.723Z,2.90
2023-03-04T11:31:32.433Z,2.80
2023-03-04T11:34:04.923Z,2.80
2023-03-04T11:36:38.448Z,2.80
2023-03-04T11:39:18.505Z,2.80
2023-03-04T11:41:53.109Z,2.80
2023-03-04T11:44:22.274Z,2.80
2023-03-04T11:47:00.799Z,2.80
2023-03-04T11:49:51.263Z,2.80
2023-03-04T11:52:29.600Z,2.80
2023-03-04T11:55:30.719Z,2.80
2023-03-04T11:58:11.111Z,2.80
2023-03-04T12:00:48.141Z,2.80
2023-03-04T12:03:52.232Z,2.80
2023-03-04T12:06:34.260Z,2.90
2023-03-04T12:09:14.961Z,2.90
2023-03-04T12:11:52.597Z,2.90
2023-03-04T12:14:35.884Z,2.90
2023-03-04T12:17:43.825Z,3.00
2023-03-04T12:20:30.796Z,3.10
2023-03-04T12:23:06.008Z,3.10
2023-03-04T12:25:41.236Z,3.20
2023-03-04T12:28:36.187Z,3.30
2023-03-04T12:31:19.733Z,3.30
2023-03-04T12:34:01.112Z,3.40
2023-03-04T12:36:39.523Z,3.40
2023-03-04T12:39:26.400Z,3.40
2023-03-04T12:42:02.757Z,3.50
2023-03-04T12:44:35.598Z,3.50
2023-03-04T12:47:25.265Z,3.60
2023-03-04T12:50:08.685Z,3.70
2023-03-04T12:52:51.304Z,3.80
2023-03-04T12:55:27.685Z,3.90
2023-03-04T12:57:58.633Z,4.00
2023-03-04T13:00:36.035Z,4.10
2023-03-04T13:03:13.272Z,4.30
2023-03-04T13:05:53.699Z,4.40
2023-03-04T13:08:34.190Z,4.50
2023-03-04T13:11:24.797Z,4.70
2023-03-04T13:14:03.419Z,4.70
2023-03-04T13:16:35.628Z,4.70
2023-03-04T13:19:05.396Z,4.70
2023-03-04T13:21:34.084Z,4.60
2023-03-04T13:24:33.164Z,4.60
2023-03-04T13:27:04.671Z,4.50
2023-03-04T13:29:37.107Z,4.30
2023-03-04T13:32:11.450Z,4.40
2023-03-04T13:34:45.771Z,4.30
2023-03-04T13:37:31.382Z,4.00
2023-03-04T13:40:34.932Z,3.60
2023-03-04T13:43:28.389Z,3.20
2023-03-04T13:45:57.084Z,2.70
2023-03-04T13:48:37.474Z,2.50
2023-03-04T13:51:05.899Z,2.40
2023-03-04T13:53:41.407Z,2.30
2023-03-04T13:56:30.031Z,2.30
2023-03-04T13:59:20.440Z,2.40
2023-03-04T14:02:01.131Z,2.40
2023-03-04T14:04:36.398Z,2.50
2023-03-04T14:07:20.511Z,2.60
2023-03-04T14:09:59.075Z,2.70
2023-03-04T14:12:32.221Z,2.70
2023-03-04T14:15:05.268Z,2.80
2023-03-04T14:17:36.546Z,2.90
2023-03-04T14:20:07.422Z,2.90
2023-03-04T14:22:44.543Z,3.10
2023-03-04T14:25:23.697Z,3.20
2023-03-04T14:28:03.412Z,3.20
2023-03-04T14:30:42.273Z,3.30
2023-03-04T14:33:19.466Z,3.50
2023-03-04T14:35:49.361Z,3.60
2023-03-04T14:38:25.455Z,3.60
2023-03-04T14:40:56.520Z,3.70
2023-03-04T14:43:26.428Z,3.80
2023-03-04T14:45:58.469Z,3.80
2023-03-04T14:48:29.386Z,3.90
2023-03-04T14:51:00.207Z,3.90
2023-03-04T14:53:34.318Z,3.90
2023-03-04T14:56:05.096Z,4.00
2023-03-04T14:58:34.798Z,4.00
2023-03-04T15:01:14.604Z,4.00
2023-03-04T15:03:44.688Z,4.10
2023-03-04T15:06:21.536Z,4.10
2023-03-04T15:08:58.663Z,4.10
2023-03-04T15:11:29.344Z,4.20
2023-03-04T15:14:00.501Z,4.20
2023-03-04T15:16:57.523Z,4.20
2023-03-04T15:19:30.448Z,4.10
2023-03-04T15:22:06.615Z,4.10
2023-03-04T15:24:35.593Z,4.10
2023-03-04T15:27:07.751Z,4.10
2023-03-04T15:29:37.173Z,4.00
2023-03-04T15:32:07.032Z,4.00
2023-03-04T15:34:35.318Z,3.90
2023-03-04T15:37:05.447Z,3.80
2023-03-04T15:39:34.083Z,3.70
2023-03-04T15:42:10.453Z,3.60
2023-03-04T15:44:38.639Z,3.50
2023-03-04T15:47:13.077Z,3.40
2023-03-04T15:49:41.888Z,3.30
2023-03-04T15:52:16.811Z,3.20
2023-03-04T15:54:45.370Z,3.10
2023-03-04T15:57:21.393Z,3.00
2023-03-04T15:59:50.748Z,3.00
2023-03-04T16:02:24.101Z,2.90
2023-03-04T16:04:55.314Z,2.90
2023-03-04T16:07:30.503Z,2.80
2023-03-04T16:10:02.448Z,2.70
2023-03-04T16:12:30.848Z,2.60
2023-03-04T16:14:59.117Z,2.50
2023-03-04T16:17:29.460Z,2.50
2023-03-04T16:20:04.247Z,2.50
2023-03-04T16:22:32.481Z,2.40
2023-03-04T16:25:00.779Z,2.40
2023-03-04T16:27:28.972Z,2.20
2023-03-04T16:29:57.365Z,2.20
2023-03-04T16:32:27.530Z,2.10
2023-03-04T16:34:57.487Z,2.10
2023-03-04T16:37:26.458Z,2.00
2023-03-04T16:39:55.328Z,2.00
2023-03-04T16:42:23.493Z,1.90
2023-03-04T16:44:54.374Z,1.90
2023-03-04T16:47:23.440Z,1.80
2023-03-04T16:49:52.472Z,1.80
2023-03-04T16:52:27.470Z,1.80
2023-03-04T16:54:56.483Z,1.80
2023-03-04T16:57:28.276Z,1.80
2023-03-04T16:59:57.349Z,1.70
2023-03-04T17:02:27.082Z,1.80
2023-03-04T17:04:59.534Z,1.80
2023-03-04T17:07:29.073Z,1.70
2023-03-04T17:09:57.433Z,1.80
2023-03-04T17:12:26.491Z,1.70
2023-03-04T17:14:54.633Z,1.80
2023-03-04T17:17:25.487Z,1.80
2023-03-04T17:19:54.590Z,1.80
2023-03-04T17:22:23.799Z,1.80
2023-03-04T17:24:53.450Z,1.70
2023-03-04T17:27:21.585Z,1.60
2023-03-04T17:29:53.501Z,1.60
2023-03-04T17:32:22.512Z,1.50
2023-03-04T17:34:50.698Z,1.60
2023-03-04T17:37:20.356Z,1.60
2023-03-04T17:39:49.527Z,1.60
2023-03-04T17:42:22.540Z,1.50
2023-03-04T17:44:52.502Z,1.50
2023-03-04T17:47:21.691Z,1.50
2023-03-04T17:49:50.508Z,1.40
2023-03-04T17:52:19.141Z,1.40
2023-03-04T17:54:47.459Z,1.40
2023-03-04T17:57:17.503Z,1.40
2023-03-04T17:59:47.205Z,1.30
2023-03-04T18:02:17.056Z,1.30
2023-03-04T18:04:46.499Z,1.30
2023-03-04T18:07:14.662Z,1.20
2023-03-04T18:09:44.523Z,1.10
2023-03-04T18:12:16.406Z,1.10
2023-03-04T18:14:46.111Z,1.10
2023-03-04T18:17:18.367Z,1.10
2023-03-04T18:19:46.610Z,1.00
2023-03-04T18:22:15.483Z,1.00
2023-03-04T18:24:43.738Z,1.00
2023-03-04T18:27:12.477Z,1.00
2023-03-04T18:29:41.481Z,1.00
2023-03-04T18:32:11.171Z,1.00
2023-03-04T18:34:40.507Z,0.90
2023-03-04T18:37:12.312Z,0.90
2023-03-04T18:39:42.027Z,0.90
2023-03-04T18:42:10.202Z,0.80
2023-03-04T18:44:38.530Z,0.80
2023-03-04T18:47:07.499Z,0.80
2023-03-04T18:49:37.083Z,0.80
2023-03-04T18:52:09.514Z,0.80
2023-03-04T18:54:37.688Z,0.70
2023-03-04T18:57:11.208Z,0.80
2023-03-04T18:59:42.284Z,0.80
2023-03-04T19:02:20.497Z,0.70
2023-03-04T19:04:51.863Z,0.70
2023-03-04T19:07:19.992Z,0.70
2023-03-04T19:09:48.509Z,0.60
2023-03-04T19:12:20.075Z,0.60
2023-03-04T19:14:51.360Z,0.60
2023-03-04T19:17:19.517Z,0.50
2023-03-04T19:19:49.058Z,0.50
2023-03-04T19:22:17.269Z,0.50
2023-03-04T19:24:49.570Z,0.50
2023-03-04T19:27:19.261Z,0.40
2023-03-04T19:29:48.906Z,0.40
2023-03-04T19:32:18.402Z,0.40
2023-03-04T19:34:46.858Z,0.30
2023-03-04T19:37:16.964Z,0.30
2023-03-04T19:39:49.121Z,0.30
2023-03-04T19:42:18.216Z,0.30
2023-03-04T19:44:49.263Z,0.30
2023-03-04T19:47:17.466Z,0.30
2023-03-04T19:49:48.323Z,0.20
2023-03-04T19:52:17.878Z,0.20
2023-03-04T19:54:46.178Z,0.20
2023-03-04T19:57:14.335Z,0.20
2023-03-04T19:59:42.532Z,0.10
2023-03-04T20:02:10.655Z,0.10
2023-03-04T20:04:38.868Z,0.10
2023-03-04T20:07:07.045Z,0.10
2023-03-04T20:09:38.002Z,0.00
2023-03-04T20:12:06.857Z,0.00
2023-03-04T20:14:36.648Z,0.00
2023-03-04T20:17:07.189Z,-0.10
2023-03-04T20:19:35.951Z,-0.10
2023-03-04T20:22:05.728Z,-0.10
2023-03-04T20:24:34.148Z,-0.20
2023-03-04T20:27:03.691Z,-0.20
2023-03-04T20:29:33.172Z,-0.20
2023-03-04T20:32:01.485Z,-0.20
2023-03-04T20:34:32.558Z,-0.20
2023-03-04T20:37:00.760Z,-0.20
2023-03-04T20:39:30.239Z,-0.20
2023-03-04T20:42:01.511Z,-0.20
2023-03-04T20:44:31.034Z,-0.30
2023-03-04T20:47:00.635Z,-0.30
2023-03-04T20:49:30.291Z,-0.30
2023-03-04T20:52:03.349Z,-0.30
2023-03-04T20:54:31.991Z,-0.30
2023-03-04T20:57:00.257Z,-0.40
2023-03-04T20:59:31.845Z,-0.40
2023-03-04T21:02:00.501Z,-0.40
2023-03-04T21:04:32.523Z,-0.40
2023-03-04T21:07:03.699Z,-0.50
2023-03-04T21:09:31.918Z,-0.50
2023-03-04T21:12:01.081Z,-0.50
2023-03-04T21:14:32.839Z,-0.50
2023-03-04T21:17:04.858Z,-0.60
2023-03-04T21:19:36.172Z,-0.60
2023-03-04T21:22:04.769Z,-0.70
2023-03-04T21:24:35.218Z,-0.70
2023-03-04T21:27:04.643Z,-0.70
2023-03-04T21:29:34.321Z,-0.80
2023-03-04T21:32:22.283Z,-0.80
2023-03-04T21:34:52.380Z,-0.90
2023-03-04T21:37:21.536Z,-0.90
2023-03-04T21:39:49.722Z,-0.90
2023-03-04T21:42:18.068Z,-0.90
2023-03-04T21:44:50.802Z,-1.00
2023-03-04T21:47:20.137Z,-1.00
2023-03-04T21:49:48.636Z,-1.00
2023-03-04T21:52:18.645Z,-1.10
2023-03-04T21:54:46.803Z,-1.10
2023-03-04T21:57:18.533Z,-1.10
2023-03-04T21:59:48.116Z,-1.10
2023-03-04T22:02:17.812Z,-1.10
2023-03-04T22:04:46.155Z,-1.20
2023-03-04T22:07:14.475Z,-1.20
2023-03-04T22:09:46.560Z,-1.20
2023-03-04T22:12:17.533Z,-1.20
2023-03-04T22:14:47.956Z,-1.20
2023-03-04T22:17:16.148Z,-1.20
2023-03-04T22:19:44.401Z,-1.20
2023-03-04T22:22:14.435Z,-1.30
2023-03-04T22:24:42.649Z,-1.30
2023-03-04T22:27:10.808Z,-1.30
2023-03-04T22:29:39.032Z,-1.30
2023-03-04T22:32:09.080Z,-1.30
2023-03-04T22:34:37.425Z,-1.40
2023-03-04T22:37:07.813Z,-1.40
2023-03-04T22:39:36.640Z,-1.40
2023-03-04T22:42:05.580Z,-1.40
2023-03-04T22:44:34.490Z,-1.40
2023-03-04T22:47:02.883Z,-1.40
2023-03-04T22:49:33.622Z,-1.40
2023-03-04T22:52:02.257Z,-1.40
2023-03-04T22:54:30.620Z,-1.50
2023-03-04T22:57:00.613Z,-1.50
2023-03-04T22:59:29.613Z,-1.50
2023-03-04T23:02:00.345Z,-1.50
2023-03-04T23:04:28.604Z,-1.50
2023-03-04T23:06:58.453Z,-1.50
2023-03-04T23:09:26.644Z,-1.50
2023-03-04T23:11:54.869Z,-1.50
2023-03-04T23:14:23.460Z,-1.50
2023-03-04T23:16:51.662Z,-1.50
2023-03-04T23:19:21.615Z,-1.50
2023-03-04T23:21:49.853Z,-1.50
2023-03-04T23:24:21.605Z,-1.60
2023-03-04T23:26:50.555Z,-1.60
2023-03-04T23:29:19.600Z,-1.50
2023-03-04T23:31:48.627Z,-1.50
2023-03-04T23:34:16.744Z,-1.50
2023-03-04T23:36:46.603Z,-1.50
2023-03-04T23:39:15.039Z,-1.50
2023-03-04T23:41:45.608Z,-1.50
2023-03-04T23:44:14.573Z,-1.60
2023-03-04T23:46:42.750Z,-1.50
2023-03-04T23:49:15.601Z,-1.50
2023-03-04T23:51:44.384Z,-1.50
2023-03-04T23:54:12.808Z,-1.50
2023-03-04T23:56:41.486Z,-1.50
2023-03-04T23:59:11.959Z,-1.40
